sensor_id;sensor_type;location;lat;lon;timestamp;P1;durP1;ratioP1;P2;durP2;ratioP2
16171;SDS011;8192;53.596;10.166;2024-03-08T00:00:58;38.23;;;32.33;;
16171;SDS011;8192;53.596;10.166;2024-03-08T00:03:25;45.27;;;34.83;;
16171;SDS011;8192;53.596;10.166;2024-03-08T00:05:55;39.93;;;33.33;;
16171;SDS011;8192;53.596;10.166;2024-03-08T00:08:23;41.67;;;34.03;;
16171;SDS011;8192;53.596;10.166;2024-03-08T00:10:50;40.33;;;33.60;;
16171;SDS011;8192;53.596;10.166;2024-03-08T00:13:17;39.23;;;33.33;;
16171;SDS011;8192;53.596;10.166;2024-03-08T00:15:44;45.13;;;34.87;;
16171;SDS011;8192;53.596;10.166;2024-03-08T00:18:11;36.77;;;30.97;;
16171;SDS011;8192;53.596;10.166;2024-03-08T00:20:38;42.90;;;33.90;;
16171;SDS011;8192;53.596;10.166;2024-03-08T00:23:06;43.37;;;33.13;;
16171;SDS011;8192;53.596;10.166;2024-03-08T00:25:33;41.73;;;33.33;;
16171;SDS011;8192;53.596;10.166;2024-03-08T00:28:00;44.73;;;35.23;;
16171;SDS011;8192;53.596;10.166;2024-03-08T00:30:27;42.70;;;33.57;;
16171;SDS011;8192;53.596;10.166;2024-03-08T00:32:56;44.03;;;33.40;;
16171;SDS011;8192;53.596;10.166;2024-03-08T00:35:23;37.27;;;33.20;;
16171;SDS011;8192;53.596;10.166;2024-03-08T00:37:49;44.23;;;34.17;;
16171;SDS011;8192;53.596;10.166;2024-03-08T00:40:18;47.37;;;34.47;;
16171;SDS011;8192;53.596;10.166;2024-03-08T00:42:45;42.23;;;33.93;;
16171;SDS011;8192;53.596;10.166;2024-03-08T00:45:12;45.23;;;34.93;;
16171;SDS011;8192;53.596;10.166;2024-03-08T00:47:39;41.27;;;32.70;;
16171;SDS011;8192;53.596;10.166;2024-03-08T00:50:09;44.57;;;34.50;;
16171;SDS011;8192;53.596;10.166;2024-03-08T00:52:36;43.83;;;33.87;;
16171;SDS011;8192;53.596;10.166;2024-03-08T00:55:03;41.30;;;34.07;;
16171;SDS011;8192;53.596;10.166;2024-03-08T00:57:32;46.83;;;34.43;;
16171;SDS011;8192;53.596;10.166;2024-03-08T01:00:00;42.30;;;33.53;;
16171;SDS011;8192;53.596;10.166;2024-03-08T01:02:29;40.03;;;33.63;;
16171;SDS011;8192;53.596;10.166;2024-03-08T01:04:56;43.83;;;33.80;;
16171;SDS011;8192;53.596;10.166;2024-03-08T01:07:23;45.77;;;34.17;;
16171;SDS011;8192;53.596;10.166;2024-03-08T01:09:50;46.87;;;34.13;;
16171;SDS011;8192;53.596;10.166;2024-03-08T01:12:16;40.67;;;32.87;;
16171;SDS011;8192;53.596;10.166;2024-03-08T01:14:45;44.37;;;34.93;;
16171;SDS011;8192;53.596;10.166;2024-03-08T01:17:12;44.33;;;35.33;;
16171;SDS011;8192;53.596;10.166;2024-03-08T01:19:39;45.40;;;32.73;;
16171;SDS011;8192;53.596;10.166;2024-03-08T01:22:06;42.00;;;33.30;;
16171;SDS011;8192;53.596;10.166;2024-03-08T01:24:33;46.97;;;34.53;;
16171;SDS011;8192;53.596;10.166;2024-03-08T01:27:00;46.40;;;33.80;;
16171;SDS011;8192;53.596;10.166;2024-03-08T01:29:27;45.40;;;34.73;;
16171;SDS011;8192;53.596;10.166;2024-03-08T01:31:59;39.97;;;33.20;;
16171;SDS011;8192;53.596;10.166;2024-03-08T01:34:26;42.57;;;34.77;;
16171;SDS011;8192;53.596;10.166;2024-03-08T01:36:53;47.20;;;36.53;;
16171;SDS011;8192;53.596;10.166;2024-03-08T01:39:21;45.67;;;34.73;;
16171;SDS011;8192;53.596;10.166;2024-03-08T01:41:48;47.90;;;36.27;;
16171;SDS011;8192;53.596;10.166;2024-03-08T01:44:16;48.27;;;35.30;;
16171;SDS011;8192;53.596;10.166;2024-03-08T01:46:43;43.63;;;34.93;;
16171;SDS011;8192;53.596;10.166;2024-03-08T01:49:12;41.27;;;33.70;;
16171;SDS011;8192;53.596;10.166;2024-03-08T01:51:40;52.60;;;35.87;;
16171;SDS011;8192;53.596;10.166;2024-03-08T01:54:07;47.07;;;34.90;;
16171;SDS011;8192;53.596;10.166;2024-03-08T01:56:35;42.97;;;33.37;;
16171;SDS011;8192;53.596;10.166;2024-03-08T01:59:04;47.47;;;35.90;;
16171;SDS011;8192;53.596;10.166;2024-03-08T02:01:32;45.43;;;35.30;;
16171;SDS011;8192;53.596;10.166;2024-03-08T02:04:00;46.30;;;35.87;;
16171;SDS011;8192;53.596;10.166;2024-03-08T02:06:29;43.87;;;34.60;;
16171;SDS011;8192;53.596;10.166;2024-03-08T02:08:56;42.30;;;34.20;;
16171;SDS011;8192;53.596;10.166;2024-03-08T02:11:23;47.43;;;35.73;;
16171;SDS011;8192;53.596;10.166;2024-03-08T02:13:50;48.80;;;36.23;;
16171;SDS011;8192;53.596;10.166;2024-03-08T02:16:20;43.70;;;34.10;;
16171;SDS011;8192;53.596;10.166;2024-03-08T02:18:47;45.27;;;34.83;;
16171;SDS011;8192;53.596;10.166;2024-03-08T02:21:16;45.00;;;34.23;;
16171;SDS011;8192;53.596;10.166;2024-03-08T02:23:46;44.30;;;34.03;;
16171;SDS011;8192;53.596;10.166;2024-03-08T02:26:13;43.63;;;34.50;;
16171;SDS011;8192;53.596;10.166;2024-03-08T02:28:40;49.57;;;35.30;;
16171;SDS011;8192;53.596;10.166;2024-03-08T02:31:08;47.93;;;35.87;;
16171;SDS011;8192;53.596;10.166;2024-03-08T02:33:35;43.23;;;34.33;;
16171;SDS011;8192;53.596;10.166;2024-03-08T02:36:01;42.80;;;35.33;;
16171;SDS011;8192;53.596;10.166;2024-03-08T02:38:30;49.33;;;36.20;;
16171;SDS011;8192;53.596;10.166;2024-03-08T02:40:58;48.63;;;34.60;;
16171;SDS011;8192;53.596;10.166;2024-03-08T02:43:25;49.37;;;35.23;;
16171;SDS011;8192;53.596;10.166;2024-03-08T02:45:52;52.47;;;36.07;;
16171;SDS011;8192;53.596;10.166;2024-03-08T02:48:19;47.83;;;35.07;;
16171;SDS011;8192;53.596;10.166;2024-03-08T02:50:46;47.50;;;34.93;;
16171;SDS011;8192;53.596;10.166;2024-03-08T02:53:16;52.97;;;35.40;;
16171;SDS011;8192;53.596;10.166;2024-03-08T02:55:45;43.87;;;33.57;;
16171;SDS011;8192;53.596;10.166;2024-03-08T02:58:12;50.53;;;34.33;;
16171;SDS011;8192;53.596;10.166;2024-03-08T03:00:39;47.47;;;34.97;;
16171;SDS011;8192;53.596;10.166;2024-03-08T03:03:06;49.30;;;34.57;;
16171;SDS011;8192;53.596;10.166;2024-03-08T03:05:34;48.83;;;34.23;;
16171;SDS011;8192;53.596;10.166;2024-03-08T03:08:01;47.00;;;34.77;;
16171;SDS011;8192;53.596;10.166;2024-03-08T03:10:29;50.57;;;35.77;;
16171;SDS011;8192;53.596;10.166;2024-03-08T03:12:57;44.13;;;34.53;;
16171;SDS011;8192;53.596;10.166;2024-03-08T03:15:24;48.63;;;35.97;;
16171;SDS011;8192;53.596;10.166;2024-03-08T03:17:51;48.53;;;35.03;;
16171;SDS011;8192;53.596;10.166;2024-03-08T03:20:18;51.83;;;36.00;;
16171;SDS011;8192;53.596;10.166;2024-03-08T03:22:51;55.97;;;35.03;;
16171;SDS011;8192;53.596;10.166;2024-03-08T03:25:19;52.67;;;35.37;;
16171;SDS011;8192;53.596;10.166;2024-03-08T03:27:50;52.70;;;34.90;;
16171;SDS011;8192;53.596;10.166;2024-03-08T03:30:19;47.10;;;34.60;;
16171;SDS011;8192;53.596;10.166;2024-03-08T03:32:47;58.23;;;37.17;;
16171;SDS011;8192;53.596;10.166;2024-03-08T03:35:14;48.27;;;35.40;;
16171;SDS011;8192;53.596;10.166;2024-03-08T03:37:42;49.70;;;35.90;;
16171;SDS011;8192;53.596;10.166;2024-03-08T03:40:16;52.30;;;35.17;;
16171;SDS011;8192;53.596;10.166;2024-03-08T03:42:44;55.27;;;36.37;;
16171;SDS011;8192;53.596;10.166;2024-03-08T03:45:11;55.90;;;36.87;;
16171;SDS011;8192;53.596;10.166;2024-03-08T03:47:42;52.93;;;35.23;;
16171;SDS011;8192;53.596;10.166;2024-03-08T03:50:09;53.57;;;36.40;;
16171;SDS011;8192;53.596;10.166;2024-03-08T03:52:36;54.83;;;36.47;;
16171;SDS011;8192;53.596;10.166;2024-03-08T03:55:03;53.60;;;36.17;;
16171;SDS011;8192;53.596;10.166;2024-03-08T03:57:30;53.17;;;35.90;;
16171;SDS011;8192;53.596;10.166;2024-03-08T03:59:58;53.13;;;34.97;;
16171;SDS011;8192;53.596;10.166;2024-03-08T04:02:27;51.10;;;35.93;;
16171;SDS011;8192;53.596;10.166;2024-03-08T04:04:56;56.80;;;37.33;;
16171;SDS011;8192;53.596;10.166;2024-03-08T04:07:23;52.47;;;36.17;;
16171;SDS011;8192;53.596;10.166;2024-03-08T04:09:49;53.50;;;36.43;;
16171;SDS011;8192;53.596;10.166;2024-03-08T04:12:16;54.23;;;35.73;;
16171;SDS011;8192;53.596;10.166;2024-03-08T04:14:44;46.43;;;35.30;;
16171;SDS011;8192;53.596;10.166;2024-03-08T04:17:10;51.67;;;36.47;;
16171;SDS011;8192;53.596;10.166;2024-03-08T04:19:38;47.70;;;34.53;;
16171;SDS011;8192;53.596;10.166;2024-03-08T04:22:07;48.87;;;36.33;;
16171;SDS011;8192;53.596;10.166;2024-03-08T04:24:34;51.10;;;35.40;;
16171;SDS011;8192;53.596;10.166;2024-03-08T04:27:00;53.33;;;36.23;;
16171;SDS011;8192;53.596;10.166;2024-03-08T04:29:27;54.57;;;34.73;;
16171;SDS011;8192;53.596;10.166;2024-03-08T04:31:54;48.47;;;35.60;;
16171;SDS011;8192;53.596;10.166;2024-03-08T04:34:21;55.90;;;36.57;;
16171;SDS011;8192;53.596;10.166;2024-03-08T04:36:49;54.93;;;36.10;;
16171;SDS011;8192;53.596;10.166;2024-03-08T04:39:17;44.40;;;35.03;;
16171;SDS011;8192;53.596;10.166;2024-03-08T04:41:44;49.93;;;34.83;;
16171;SDS011;8192;53.596;10.166;2024-03-08T04:44:11;53.33;;;36.13;;
16171;SDS011;8192;53.596;10.166;2024-03-08T04:46:39;49.77;;;35.33;;
16171;SDS011;8192;53.596;10.166;2024-03-08T04:49:06;49.50;;;35.50;;
16171;SDS011;8192;53.596;10.166;2024-03-08T04:51:33;52.97;;;35.00;;
16171;SDS011;8192;53.596;10.166;2024-03-08T04:54:00;50.90;;;35.60;;
16171;SDS011;8192;53.596;10.166;2024-03-08T04:56:28;53.50;;;35.47;;
16171;SDS011;8192;53.596;10.166;2024-03-08T04:58:55;53.33;;;33.83;;
16171;SDS011;8192;53.596;10.166;2024-03-08T05:01:22;53.67;;;35.27;;
16171;SDS011;8192;53.596;10.166;2024-03-08T05:03:49;56.77;;;36.77;;
16171;SDS011;8192;53.596;10.166;2024-03-08T05:06:19;50.77;;;36.97;;
16171;SDS011;8192;53.596;10.166;2024-03-08T05:08:46;52.97;;;35.63;;
16171;SDS011;8192;53.596;10.166;2024-03-08T05:11:13;52.53;;;36.23;;
16171;SDS011;8192;53.596;10.166;2024-03-08T05:13:41;58.47;;;36.63;;
16171;SDS011;8192;53.596;10.166;2024-03-08T05:16:10;59.23;;;36.17;;
16171;SDS011;8192;53.596;10.166;2024-03-08T05:18:38;55.53;;;37.90;;
16171;SDS011;8192;53.596;10.166;2024-03-08T05:21:07;51.77;;;36.37;;
16171;SDS011;8192;53.596;10.166;2024-03-08T05:23:34;51.50;;;36.23;;
16171;SDS011;8192;53.596;10.166;2024-03-08T05:26:01;58.73;;;36.20;;
16171;SDS011;8192;53.596;10.166;2024-03-08T05:28:28;56.47;;;37.17;;
16171;SDS011;8192;53.596;10.166;2024-03-08T05:30:56;61.63;;;36.80;;
16171;SDS011;8192;53.596;10.166;2024-03-08T05:33:23;55.73;;;36.43;;
16171;SDS011;8192;53.596;10.166;2024-03-08T05:35:50;58.00;;;36.23;;
16171;SDS011;8192;53.596;10.166;2024-03-08T05:38:17;51.43;;;36.17;;
16171;SDS011;8192;53.596;10.166;2024-03-08T05:40:45;50.67;;;36.30;;
16171;SDS011;8192;53.596;10.166;2024-03-08T05:43:12;57.03;;;36.07;;
16171;SDS011;8192;53.596;10.166;2024-03-08T05:45:42;62.83;;;35.23;;
16171;SDS011;8192;53.596;10.166;2024-03-08T05:48:11;58.00;;;36.93;;
16171;SDS011;8192;53.596;10.166;2024-03-08T05:50:38;52.90;;;37.63;;
16171;SDS011;8192;53.596;10.166;2024-03-08T05:53:05;55.93;;;36.97;;
16171;SDS011;8192;53.596;10.166;2024-03-08T05:55:32;57.20;;;38.10;;
16171;SDS011;8192;53.596;10.166;2024-03-08T05:58:00;54.90;;;36.53;;
16171;SDS011;8192;53.596;10.166;2024-03-08T06:00:27;52.40;;;36.67;;
16171;SDS011;8192;53.596;10.166;2024-03-08T06:02:56;53.00;;;37.47;;
16171;SDS011;8192;53.596;10.166;2024-03-08T06:05:25;54.37;;;36.53;;
16171;SDS011;8192;53.596;10.166;2024-03-08T06:07:52;57.80;;;37.60;;
16171;SDS011;8192;53.596;10.166;2024-03-08T06:10:19;56.23;;;36.57;;
16171;SDS011;8192;53.596;10.166;2024-03-08T06:12:46;48.77;;;34.67;;
16171;SDS011;8192;53.596;10.166;2024-03-08T06:15:13;57.33;;;38.03;;
16171;SDS011;8192;53.596;10.166;2024-03-08T06:17:41;61.57;;;38.30;;
16171;SDS011;8192;53.596;10.166;2024-03-08T06:20:08;57.33;;;36.93;;
16171;SDS011;8192;53.596;10.166;2024-03-08T06:22:39;58.73;;;38.30;;
16171;SDS011;8192;53.596;10.166;2024-03-08T06:25:07;64.20;;;39.03;;
16171;SDS011;8192;53.596;10.166;2024-03-08T06:27:36;54.93;;;38.40;;
16171;SDS011;8192;53.596;10.166;2024-03-08T06:30:03;62.23;;;40.97;;
16171;SDS011;8192;53.596;10.166;2024-03-08T06:32:31;64.23;;;40.30;;
16171;SDS011;8192;53.596;10.166;2024-03-08T06:35:00;67.47;;;40.83;;
16171;SDS011;8192;53.596;10.166;2024-03-08T06:37:27;62.17;;;39.23;;
16171;SDS011;8192;53.596;10.166;2024-03-08T06:39:58;63.53;;;40.47;;
16171;SDS011;8192;53.596;10.166;2024-03-08T06:42:26;65.27;;;41.90;;
16171;SDS011;8192;53.596;10.166;2024-03-08T06:44:54;64.80;;;41.70;;
16171;SDS011;8192;53.596;10.166;2024-03-08T06:47:28;88.90;;;40.13;;
16171;SDS011;8192;53.596;10.166;2024-03-08T06:49:55;56.37;;;39.37;;
16171;SDS011;8192;53.596;10.166;2024-03-08T06:52:22;66.73;;;41.10;;
16171;SDS011;8192;53.596;10.166;2024-03-08T06:54:49;64.80;;;42.90;;
16171;SDS011;8192;53.596;10.166;2024-03-08T06:57:18;58.83;;;39.90;;
16171;SDS011;8192;53.596;10.166;2024-03-08T06:59:47;62.57;;;41.63;;
16171;SDS011;8192;53.596;10.166;2024-03-08T07:02:15;54.87;;;38.97;;
16171;SDS011;8192;53.596;10.166;2024-03-08T07:04:42;51.07;;;38.97;;
16171;SDS011;8192;53.596;10.166;2024-03-08T07:07:10;47.93;;;38.83;;
16171;SDS011;8192;53.596;10.166;2024-03-08T07:09:40;51.00;;;38.97;;
16171;SDS011;8192;53.596;10.166;2024-03-08T07:12:07;46.20;;;35.53;;
16171;SDS011;8192;53.596;10.166;2024-03-08T07:14:36;44.03;;;36.70;;
16171;SDS011;8192;53.596;10.166;2024-03-08T07:17:05;46.37;;;36.50;;
16171;SDS011;8192;53.596;10.166;2024-03-08T07:19:34;46.20;;;36.73;;
16171;SDS011;8192;53.596;10.166;2024-03-08T07:22:03;45.70;;;36.73;;
16171;SDS011;8192;53.596;10.166;2024-03-08T07:24:33;45.73;;;36.63;;
16171;SDS011;8192;53.596;10.166;2024-03-08T07:27:15;47.60;;;36.50;;
16171;SDS011;8192;53.596;10.166;2024-03-08T07:29:44;47.67;;;37.07;;
16171;SDS011;8192;53.596;10.166;2024-03-08T07:32:11;42.43;;;35.10;;
16171;SDS011;8192;53.596;10.166;2024-03-08T07:34:46;38.33;;;34.17;;
16171;SDS011;8192;53.596;10.166;2024-03-08T07:37:14;42.00;;;34.97;;
16171;SDS011;8192;53.596;10.166;2024-03-08T07:39:41;42.57;;;34.77;;
16171;SDS011;8192;53.596;10.166;2024-03-08T07:42:08;40.57;;;34.63;;
16171;SDS011;8192;53.596;10.166;2024-03-08T07:44:37;46.97;;;35.10;;
16171;SDS011;8192;53.596;10.166;2024-03-08T07:47:05;42.40;;;36.47;;
16171;SDS011;8192;53.596;10.166;2024-03-08T07:49:34;44.13;;;35.67;;
16171;SDS011;8192;53.596;10.166;2024-03-08T07:52:02;45.73;;;36.43;;
16171;SDS011;8192;53.596;10.166;2024-03-08T07:54:32;52.80;;;38.27;;
16171;SDS011;8192;53.596;10.166;2024-03-08T07:56:59;47.83;;;37.33;;
16171;SDS011;8192;53.596;10.166;2024-03-08T07:59:28;48.43;;;37.40;;
16171;SDS011;8192;53.596;10.166;2024-03-08T08:01:55;48.67;;;37.87;;
16171;SDS011;8192;53.596;10.166;2024-03-08T08:04:24;48.37;;;37.53;;
16171;SDS011;8192;53.596;10.166;2024-03-08T08:06:51;49.33;;;36.13;;
16171;SDS011;8192;53.596;10.166;2024-03-08T08:09:19;52.83;;;38.73;;
16171;SDS011;8192;53.596;10.166;2024-03-08T08:11:53;51.57;;;38.10;;
16171;SDS011;8192;53.596;10.166;2024-03-08T08:14:20;47.73;;;37.27;;
16171;SDS011;8192;53.596;10.166;2024-03-08T08:16:47;51.67;;;38.17;;
16171;SDS011;8192;53.596;10.166;2024-03-08T08:19:17;48.17;;;37.13;;
16171;SDS011;8192;53.596;10.166;2024-03-08T08:21:46;46.93;;;37.27;;
16171;SDS011;8192;53.596;10.166;2024-03-08T08:24:14;48.90;;;38.93;;
16171;SDS011;8192;53.596;10.166;2024-03-08T08:26:41;49.50;;;37.13;;
16171;SDS011;8192;53.596;10.166;2024-03-08T08:29:09;46.00;;;37.10;;
16171;SDS011;8192;53.596;10.166;2024-03-08T08:31:36;43.87;;;36.80;;
16171;SDS011;8192;53.596;10.166;2024-03-08T08:34:03;46.93;;;38.27;;
16171;SDS011;8192;53.596;10.166;2024-03-08T08:36:32;45.30;;;36.17;;
16171;SDS011;8192;53.596;10.166;2024-03-08T08:41:36;45.80;;;35.97;;
16171;SDS011;8192;53.596;10.166;2024-03-08T08:44:03;50.67;;;37.67;;
16171;SDS011;8192;53.596;10.166;2024-03-08T08:46:35;43.37;;;35.20;;
16171;SDS011;8192;53.596;10.166;2024-03-08T08:49:02;43.37;;;36.13;;
16171;SDS011;8192;53.596;10.166;2024-03-08T08:51:29;46.37;;;37.57;;
16171;SDS011;8192;53.596;10.166;2024-03-08T08:53:58;46.30;;;36.80;;
16171;SDS011;8192;53.596;10.166;2024-03-08T08:56:27;48.13;;;36.53;;
16171;SDS011;8192;53.596;10.166;2024-03-08T08:58:54;50.47;;;37.77;;
16171;SDS011;8192;53.596;10.166;2024-03-08T09:01:22;48.47;;;39.30;;
16171;SDS011;8192;53.596;10.166;2024-03-08T09:03:49;46.03;;;34.17;;
16171;SDS011;8192;53.596;10.166;2024-03-08T09:06:17;47.43;;;36.97;;
16171;SDS011;8192;53.596;10.166;2024-03-08T09:08:44;44.27;;;34.47;;
16171;SDS011;8192;53.596;10.166;2024-03-08T09:11:11;46.40;;;36.50;;
16171;SDS011;8192;53.596;10.166;2024-03-08T09:13:40;40.37;;;34.90;;
16171;SDS011;8192;53.596;10.166;2024-03-08T09:16:09;48.70;;;36.83;;
16171;SDS011;8192;53.596;10.166;2024-03-08T09:18:36;42.40;;;35.60;;
16171;SDS011;8192;53.596;10.166;2024-03-08T09:21:03;49.77;;;36.57;;
16171;SDS011;8192;53.596;10.166;2024-03-08T09:23:34;44.73;;;36.13;;
16171;SDS011;8192;53.596;10.166;2024-03-08T09:26:01;46.20;;;35.93;;
16171;SDS011;8192;53.596;10.166;2024-03-08T09:28:29;43.43;;;35.17;;
16171;SDS011;8192;53.596;10.166;2024-03-08T09:30:57;46.33;;;36.67;;
16171;SDS011;8192;53.596;10.166;2024-03-08T09:33:26;43.33;;;35.93;;
16171;SDS011;8192;53.596;10.166;2024-03-08T09:35:54;43.30;;;34.43;;
16171;SDS011;8192;53.596;10.166;2024-03-08T09:38:22;43.47;;;33.37;;
16171;SDS011;8192;53.596;10.166;2024-03-08T09:40:50;42.57;;;36.60;;
16171;SDS011;8192;53.596;10.166;2024-03-08T09:43:18;43.83;;;36.33;;
16171;SDS011;8192;53.596;10.166;2024-03-08T09:45:45;42.40;;;35.63;;
16171;SDS011;8192;53.596;10.166;2024-03-08T09:48:17;43.63;;;35.17;;
16171;SDS011;8192;53.596;10.166;2024-03-08T09:50:45;40.63;;;35.50;;
16171;SDS011;8192;53.596;10.166;2024-03-08T09:53:13;43.63;;;35.87;;
16171;SDS011;8192;53.596;10.166;2024-03-08T09:55:40;46.33;;;36.03;;
16171;SDS011;8192;53.596;10.166;2024-03-08T09:58:10;41.43;;;33.03;;
16171;SDS011;8192;53.596;10.166;2024-03-08T10:01:03;41.90;;;36.00;;
16171;SDS011;8192;53.596;10.166;2024-03-08T10:03:32;46.20;;;34.73;;
16171;SDS011;8192;53.596;10.166;2024-03-08T10:05:59;44.07;;;35.47;;
16171;SDS011;8192;53.596;10.166;2024-03-08T10:08:26;46.07;;;35.60;;
16171;SDS011;8192;53.596;10.166;2024-03-08T10:10:55;37.57;;;33.63;;
16171;SDS011;8192;53.596;10.166;2024-03-08T10:13:23;41.63;;;35.60;;
16171;SDS011;8192;53.596;10.166;2024-03-08T10:15:52;42.80;;;35.33;;
16171;SDS011;8192;53.596;10.166;2024-03-08T10:18:19;41.80;;;34.43;;
16171;SDS011;8192;53.596;10.166;2024-03-08T10:20:48;40.20;;;34.53;;
16171;SDS011;8192;53.596;10.166;2024-03-08T10:23:30;42.87;;;36.60;;
16171;SDS011;8192;53.596;10.166;2024-03-08T10:25:58;39.50;;;35.13;;
16171;SDS011;8192;53.596;10.166;2024-03-08T10:28:36;40.83;;;34.60;;
16171;SDS011;8192;53.596;10.166;2024-03-08T10:31:03;42.70;;;34.73;;
16171;SDS011;8192;53.596;10.166;2024-03-08T10:33:30;33.93;;;30.20;;
16171;SDS011;8192;53.596;10.166;2024-03-08T10:35:59;37.40;;;33.50;;
16171;SDS011;8192;53.596;10.166;2024-03-08T10:38:28;38.67;;;33.53;;
16171;SDS011;8192;53.596;10.166;2024-03-08T10:40:59;41.33;;;34.63;;
16171;SDS011;8192;53.596;10.166;2024-03-08T10:43:28;37.30;;;33.33;;
16171;SDS011;8192;53.596;10.166;2024-03-08T10:46:06;40.87;;;34.33;;
16171;SDS011;8192;53.596;10.166;2024-03-08T10:48:41;38.60;;;34.20;;
16171;SDS011;8192;53.596;10.166;2024-03-08T10:51:21;37.03;;;32.90;;
16171;SDS011;8192;53.596;10.166;2024-03-08T10:53:49;37.83;;;33.77;;
16171;SDS011;8192;53.596;10.166;2024-03-08T10:56:19;41.30;;;33.77;;
16171;SDS011;8192;53.596;10.166;2024-03-08T10:58:47;37.60;;;33.33;;
16171;SDS011;8192;53.596;10.166;2024-03-08T11:01:15;37.40;;;33.50;;
16171;SDS011;8192;53.596;10.166;2024-03-08T11:03:46;39.70;;;34.30;;
16171;SDS011;8192;53.596;10.166;2024-03-08T11:06:18;36.83;;;32.77;;
16171;SDS011;8192;53.596;10.166;2024-03-08T11:08:50;39.33;;;31.70;;
16171;SDS011;8192;53.596;10.166;2024-03-08T11:11:23;39.10;;;33.20;;
16171;SDS011;8192;53.596;10.166;2024-03-08T11:13:55;38.73;;;33.87;;
16171;SDS011;8192;53.596;10.166;2024-03-08T11:19:26;36.53;;;31.93;;
16171;SDS011;8192;53.596;10.166;2024-03-08T11:21:57;34.00;;;30.13;;
16171;SDS011;8192;53.596;10.166;2024-03-08T11:24:26;36.50;;;32.60;;
16171;SDS011;8192;53.596;10.166;2024-03-08T11:26:55;38.17;;;32.30;;
16171;SDS011;8192;53.596;10.166;2024-03-08T11:29:36;35.70;;;31.93;;
16171;SDS011;8192;53.596;10.166;2024-03-08T11:32:07;35.60;;;31.73;;
16171;SDS011;8192;53.596;10.166;2024-03-08T11:34:35;36.87;;;31.27;;
16171;SDS011;8192;53.596;10.166;2024-03-08T11:37:05;40.90;;;33.27;;
16171;SDS011;8192;53.596;10.166;2024-03-08T11:39:39;38.07;;;31.30;;
16171;SDS011;8192;53.596;10.166;2024-03-08T11:42:06;40.47;;;33.80;;
16171;SDS011;8192;53.596;10.166;2024-03-08T11:44:33;37.40;;;33.37;;
16171;SDS011;8192;53.596;10.166;2024-03-08T11:47:01;36.87;;;32.97;;
16171;SDS011;8192;53.596;10.166;2024-03-08T11:49:31;36.57;;;32.73;;
16171;SDS011;8192;53.596;10.166;2024-03-08T11:51:59;38.93;;;31.63;;
16171;SDS011;8192;53.596;10.166;2024-03-08T11:54:28;35.33;;;31.73;;
16171;SDS011;8192;53.596;10.166;2024-03-08T11:56:57;34.50;;;30.43;;
16171;SDS011;8192;53.596;10.166;2024-03-08T11:59:27;35.27;;;30.77;;
16171;SDS011;8192;53.596;10.166;2024-03-08T12:01:58;35.50;;;31.70;;
16171;SDS011;8192;53.596;10.166;2024-03-08T12:04:28;37.40;;;32.57;;
16171;SDS011;8192;53.596;10.166;2024-03-08T12:06:56;37.90;;;31.87;;
16171;SDS011;8192;53.596;10.166;2024-03-08T12:09:26;38.63;;;34.20;;
16171;SDS011;8192;53.596;10.166;2024-03-08T12:11:53;37.67;;;32.53;;
16171;SDS011;8192;53.596;10.166;2024-03-08T12:14:22;36.43;;;32.27;;
16171;SDS011;8192;53.596;10.166;2024-03-08T12:16:50;36.73;;;31.73;;
16171;SDS011;8192;53.596;10.166;2024-03-08T12:19:18;36.03;;;32.10;;
16171;SDS011;8192;53.596;10.166;2024-03-08T12:21:45;32.73;;;28.23;;
16171;SDS011;8192;53.596;10.166;2024-03-08T12:24:14;35.03;;;31.23;;
16171;SDS011;8192;53.596;10.166;2024-03-08T12:26:44;35.03;;;31.40;;
16171;SDS011;8192;53.596;10.166;2024-03-08T12:29:17;35.67;;;31.07;;
16171;SDS011;8192;53.596;10.166;2024-03-08T12:31:49;36.73;;;30.73;;
16171;SDS011;8192;53.596;10.166;2024-03-08T12:34:18;33.53;;;30.13;;
16171;SDS011;8192;53.596;10.166;2024-03-08T12:36:45;33.17;;;28.43;;
16171;SDS011;8192;53.596;10.166;2024-03-08T12:39:17;34.33;;;30.27;;
16171;SDS011;8192;53.596;10.166;2024-03-08T12:41:47;34.13;;;30.57;;
16171;SDS011;8192;53.596;10.166;2024-03-08T12:44:16;33.87;;;30.17;;
16171;SDS011;8192;53.596;10.166;2024-03-08T12:46:44;32.73;;;29.23;;
16171;SDS011;8192;53.596;10.166;2024-03-08T12:49:12;34.33;;;30.27;;
16171;SDS011;8192;53.596;10.166;2024-03-08T12:51:42;34.97;;;30.90;;
16171;SDS011;8192;53.596;10.166;2024-03-08T12:54:10;33.70;;;29.47;;
16171;SDS011;8192;53.596;10.166;2024-03-08T12:56:37;35.50;;;30.43;;
16171;SDS011;8192;53.596;10.166;2024-03-08T12:59:05;32.23;;;28.87;;
16171;SDS011;8192;53.596;10.166;2024-03-08T13:01:33;35.47;;;30.93;;
16171;SDS011;8192;53.596;10.166;2024-03-08T13:04:02;34.47;;;30.80;;
16171;SDS011;8192;53.596;10.166;2024-03-08T13:06:32;35.87;;;30.23;;
16171;SDS011;8192;53.596;10.166;2024-03-08T13:08:59;35.03;;;31.27;;
16171;SDS011;8192;53.596;10.166;2024-03-08T13:11:30;32.80;;;29.30;;
16171;SDS011;8192;53.596;10.166;2024-03-08T13:14:01;34.97;;;30.20;;
16171;SDS011;8192;53.596;10.166;2024-03-08T13:16:30;32.27;;;28.83;;
16171;SDS011;8192;53.596;10.166;2024-03-08T13:18:59;36.90;;;30.53;;
16171;SDS011;8192;53.596;10.166;2024-03-08T13:21:26;31.97;;;28.57;;
16171;SDS011;8192;53.596;10.166;2024-03-08T13:23:56;32.37;;;28.97;;
16171;SDS011;8192;53.596;10.166;2024-03-08T13:26:25;31.73;;;28.50;;
16171;SDS011;8192;53.596;10.166;2024-03-08T13:28:57;31.63;;;28.17;;
16171;SDS011;8192;53.596;10.166;2024-03-08T13:31:24;31.53;;;27.83;;
16171;SDS011;8192;53.596;10.166;2024-03-08T13:33:51;32.67;;;29.17;;
16171;SDS011;8192;53.596;10.166;2024-03-08T13:36:23;31.23;;;28.03;;
16171;SDS011;8192;53.596;10.166;2024-03-08T13:38:54;31.03;;;28.03;;
16171;SDS011;8192;53.596;10.166;2024-03-08T13:41:22;31.90;;;28.33;;
16171;SDS011;8192;53.596;10.166;2024-03-08T13:43:49;36.83;;;29.57;;
16171;SDS011;8192;53.596;10.166;2024-03-08T13:46:16;33.57;;;29.67;;
16171;SDS011;8192;53.596;10.166;2024-03-08T13:48:43;31.80;;;28.40;;
16171;SDS011;8192;53.596;10.166;2024-03-08T13:51:10;30.33;;;27.17;;
16171;SDS011;8192;53.596;10.166;2024-03-08T13:53:40;30.03;;;26.97;;
16171;SDS011;8192;53.596;10.166;2024-03-08T13:56:07;33.10;;;29.23;;
16171;SDS011;8192;53.596;10.166;2024-03-08T13:58:37;32.93;;;29.33;;
16171;SDS011;8192;53.596;10.166;2024-03-08T14:01:05;32.27;;;28.83;;
16171;SDS011;8192;53.596;10.166;2024-03-08T14:03:36;31.93;;;28.60;;
16171;SDS011;8192;53.596;10.166;2024-03-08T14:06:03;34.60;;;31.13;;
16171;SDS011;8192;53.596;10.166;2024-03-08T14:08:32;38.03;;;31.27;;
16171;SDS011;8192;53.596;10.166;2024-03-08T14:10:59;35.43;;;31.60;;
16171;SDS011;8192;53.596;10.166;2024-03-08T14:13:37;36.07;;;32.00;;
16171;SDS011;8192;53.596;10.166;2024-03-08T14:16:07;34.40;;;30.70;;
16171;SDS011;8192;53.596;10.166;2024-03-08T14:18:35;33.67;;;29.97;;
16171;SDS011;8192;53.596;10.166;2024-03-08T14:21:03;39.10;;;30.57;;
16171;SDS011;8192;53.596;10.166;2024-03-08T14:23:30;33.13;;;29.50;;
16171;SDS011;8192;53.596;10.166;2024-03-08T14:25:57;33.17;;;29.53;;
16171;SDS011;8192;53.596;10.166;2024-03-08T14:28:24;35.83;;;29.80;;
16171;SDS011;8192;53.596;10.166;2024-03-08T14:30:53;34.87;;;31.20;;
16171;SDS011;8192;53.596;10.166;2024-03-08T14:33:20;36.30;;;31.00;;